Time;durP1;ratioP1;P1;durP2;ratioP2;P2;SDS_P1;SDS_P2;PMS_P1;PMS_P2;Temp;Humidity;BMP_temperature;BMP_pressure;BME280_temperature;BME280_humidity;BME280_pressure;Samples;Min_cycle;Max_cycle;Signal;HPM_P1;HPM_P2
2023/02/22 00:00:41;;;;;;;84.57;44.10;;;11.50;99.90;;;;;;5004060;28;20045;-85
2023/02/22 00:03:23;;;;;;;98.25;44.88;;;11.40;99.90;;;;;;5021171;28;20392;-85
2023/02/22 00:05:52;;;;;;;90.35;43.70;;;11.30;99.90;;;;;;5007274;28;20034;-84
2023/02/22 00:08:22;;;;;;;95.15;44.10;;;11.30;99.90;;;;;;5015611;28;20041;-85
2023/02/22 00:10:51;;;;;;;89.93;44.03;;;11.40;99.90;;;;;;5008393;28;20045;-85
2023/02/22 00:13:18;;;;;;;90.63;45.65;;;11.40;99.90;;;;;;5025531;28;20026;-85
2023/02/22 00:15:44;;;;;;;93.25;43.30;;;11.50;99.90;;;;;;5007604;28;20038;-85
2023/02/22 00:18:15;;;;;;;84.22;41.80;;;11.50;99.90;;;;;;5037472;28;20514;-85
2023/02/22 00:20:41;;;;;;;87.63;43.85;;;11.50;99.90;;;;;;5011742;28;20038;-85
2023/02/22 00:23:13;;;;;;;88.05;43.13;;;11.50;99.90;;;;;;5015775;28;20048;-85
2023/02/22 00:25:39;;;;;;;79.90;41.38;;;11.50;99.90;;;;;;4974152;28;20123;-86
2023/02/22 00:28:05;;;;;;;88.90;42.88;;;11.50;99.90;;;;;;5009618;28;20030;-85
2023/02/22 00:30:32;;;;;;;81.82;42.05;;;11.60;99.90;;;;;;5009150;28;20034;-85
2023/02/22 00:32:58;;;;;;;85.22;41.67;;;11.50;99.90;;;;;;5026528;28;20026;-86
2023/02/22 00:35:26;;;;;;;83.88;42.63;;;11.60;99.90;;;;;;5018962;28;20022;-85
2023/02/22 00:37:54;;;;;;;86.03;40.95;;;11.60;99.90;;;;;;5008787;28;20049;-85
2023/02/22 00:40:22;;;;;;;81.20;40.33;;;11.50;99.90;;;;;;5009299;28;20471;-84
2023/02/22 00:42:48;;;;;;;79.70;43.05;;;11.50;99.90;;;;;;5022647;28;20060;-85
2023/02/22 00:45:16;;;;;;;79.90;41.90;;;11.50;99.90;;;;;;5002185;28;20030;-86
2023/02/22 00:47:42;;;;;;;70.55;37.60;;;11.50;99.90;;;;;;4996300;28;20065;-85
2023/02/22 00:50:08;;;;;;;72.60;36.45;;;11.40;99.90;;;;;;5008879;28;20041;-85
2023/02/22 00:52:35;;;;;;;66.50;34.00;;;11.40;99.90;;;;;;5010078;28;20041;-85
2023/02/22 00:55:02;;;;;;;61.20;34.33;;;11.40;99.90;;;;;;5041771;28;20034;-85
2023/02/22 00:57:28;;;;;;;61.85;34.33;;;11.40;99.90;;;;;;5042874;28;20486;-86
2023/02/22 00:59:54;;;;;;;61.25;33.28;;;11.40;99.90;;;;;;5044130;28;20033;-85
2023/02/22 01:02:20;;;;;;;58.13;32.63;;;11.30;99.90;;;;;;5004968;28;20407;-86
2023/02/22 01:04:46;;;;;;;55.55;31.95;;;11.30;99.90;;;;;;5007826;28;20383;-86
2023/02/22 01:07:13;;;;;;;56.08;31.27;;;11.40;99.90;;;;;;5001167;28;20026;-85
2023/02/22 01:09:40;;;;;;;51.97;31.63;;;11.30;99.90;;;;;;4994627;28;20049;-85
2023/02/22 01:12:06;;;;;;;51.15;30.85;;;11.40;99.90;;;;;;5005765;28;20037;-85
2023/02/22 01:14:33;;;;;;;45.40;29.10;;;11.40;99.90;;;;;;5031981;28;20034;-86
2023/02/22 01:16:59;;;;;;;48.10;30.63;;;11.40;99.90;;;;;;5023700;28;20054;-86
2023/02/22 01:19:25;;;;;;;52.22;30.80;;;11.40;99.90;;;;;;5023079;28;20041;-86
2023/02/22 01:21:51;;;;;;;47.63;28.40;;;11.50;99.90;;;;;;4998831;28;20046;-86
2023/02/22 01:24:18;;;;;;;42.85;28.40;;;11.50;99.90;;;;;;5003195;28;20032;-85
2023/02/22 01:26:49;;;;;;;45.40;27.63;;;11.40;99.90;;;;;;5011071;28;20313;-86
2023/02/22 01:29:15;;;;;;;45.47;28.00;;;11.40;99.90;;;;;;4996356;28;20360;-86
2023/02/22 01:31:45;;;;;;;44.38;25.83;;;11.40;99.90;;;;;;5011272;28;20046;-86
2023/02/22 01:34:11;;;;;;;45.75;27.55;;;11.40;99.90;;;;;;5027193;28;20456;-86
2023/02/22 01:36:38;;;;;;;40.95;26.75;;;11.40;99.90;;;;;;5014460;28;20382;-85
2023/02/22 01:39:05;;;;;;;41.47;26.13;;;11.40;99.90;;;;;;5034517;28;20045;-86
2023/02/22 01:41:31;;;;;;;44.08;28.08;;;11.50;99.90;;;;;;5009799;28;20033;-86
2023/02/22 01:43:57;;;;;;;47.75;28.00;;;11.50;99.90;;;;;;5011610;28;20034;-85
2023/02/22 01:46:25;;;;;;;41.63;27.52;;;11.50;99.90;;;;;;5009027;28;20049;-86
2023/02/22 01:48:55;;;;;;;43.22;27.42;;;11.40;99.90;;;;;;4993186;28;20041;-86
2023/02/22 01:51:45;;;;;;;45.58;30.33;;;11.40;99.90;;;;;;5025715;28;20451;-85
2023/02/22 01:54:17;;;;;;;48.23;29.37;;;11.40;99.90;;;;;;4995456;28;20507;-85
2023/02/22 01:56:56;;;;;;;46.03;29.58;;;11.40;99.90;;;;;;5009710;28;20033;-84
2023/02/22 01:59:22;;;;;;;39.65;30.02;;;11.50;99.90;;;;;;5035649;28;20025;-85
2023/02/22 02:01:48;;;;;;;47.03;30.13;;;11.50;99.90;;;;;;5047426;28;20025;-85
2023/02/22 02:04:18;;;;;;;45.22;30.98;;;11.40;99.90;;;;;;4978291;28;20395;-86
2023/02/22 02:06:44;;;;;;;46.85;30.67;;;11.40;99.90;;;;;;5025910;28;20030;-85
2023/02/22 02:09:32;;;;;;;46.13;29.00;;;11.50;99.90;;;;;;5016600;28;20029;-85
2023/02/22 02:12:03;;;;;;;46.90;29.67;;;11.40;99.90;;;;;;5012747;28;20533;-85
2023/02/22 02:14:32;;;;;;;52.03;32.75;;;11.40;99.90;;;;;;5013824;28;20026;-85
2023/02/22 02:17:01;;;;;;;52.80;32.17;;;11.30;99.90;;;;;;5025527;28;20042;-85
2023/02/22 02:19:39;;;;;;;57.40;34.08;;;11.20;99.90;;;;;;5009683;28;20039;-85
2023/02/22 02:22:43;;;;;;;55.95;33.53;;;11.20;99.90;;;;;;5024821;28;20071;-85
2023/02/22 02:25:47;;;;;;;51.38;32.55;;;11.10;99.90;;;;;;4975920;28;20050;-85
2023/02/22 02:28:44;;;;;;;47.17;31.65;;;11.00;99.90;;;;;;4896954;29;20045;-86
2023/02/22 02:31:26;;;;;;;53.75;33.15;;;11.00;99.90;;;;;;4894596;29;20048;-85
2023/02/22 02:34:14;;;;;;;52.33;32.38;;;10.90;99.90;;;;;;4879176;29;20209;-86
2023/02/22 02:36:40;;;;;;;52.38;32.75;;;10.90;99.90;;;;;;4876599;29;20049;-85
2023/02/22 02:39:28;;;;;;;55.28;32.75;;;10.90;99.90;;;;;;4894467;29;20052;-85
2023/02/22 02:41:54;;;;;;;53.25;32.17;;;10.90;99.90;;;;;;4879937;29;20121;-85
2023/02/22 02:44:40;;;;;;;57.15;33.55;;;11.00;99.90;;;;;;4880448;29;20138;-85
2023/02/22 02:47:27;;;;;;;56.67;33.22;;;11.00;99.90;;;;;;4879134;29;20037;-85
2023/02/22 02:50:00;;;;;;;50.70;33.38;;;11.00;99.90;;;;;;4880839;29;20029;-85
2023/02/22 02:52:26;;;;;;;52.97;33.33;;;11.10;99.90;;;;;;4874015;29;20061;-86
2023/02/22 02:54:52;;;;;;;54.38;34.28;;;11.10;99.90;;;;;;4880262;29;20068;-85
2023/02/22 02:57:19;;;;;;;50.08;32.35;;;11.10;99.90;;;;;;4880275;29;20080;-85
2023/02/22 02:59:45;;;;;;;58.00;35.53;;;11.10;99.90;;;;;;4880720;29;20044;-86
2023/02/22 03:02:42;;;;;;;54.55;32.72;;;11.00;99.90;;;;;;4909105;29;20075;-85
2023/02/22 03:05:46;;;;;;;51.17;31.70;;;10.90;99.90;;;;;;4958565;28;20414;-86
2023/02/22 03:08:33;;;;;;;52.90;30.90;;;10.90;99.90;;;;;;5009031;28;20053;-86
2023/02/22 03:11:20;;;;;;;49.03;32.78;;;10.90;99.90;;;;;;5003427;28;20601;-85
2023/02/22 03:14:28;;;;;;;52.67;31.73;;;11.00;99.90;;;;;;5008693;28;20407;-86
2023/02/22 03:16:57;;;;;;;53.42;34.67;;;11.00;99.90;;;;;;5010533;28;20041;-86
2023/02/22 03:19:29;;;;;;;53.67;34.22;;;11.10;99.90;;;;;;5011228;28;20416;-86
2023/02/22 03:22:11;;;;;;;52.75;34.17;;;11.10;99.90;;;;;;5009969;28;20046;-85
2023/02/22 03:24:43;;;;;;;53.42;32.45;;;11.10;99.90;;;;;;5006014;28;20050;-84
2023/02/22 03:27:12;;;;;;;54.17;32.95;;;11.00;99.90;;;;;;4999934;28;20030;-85
2023/02/22 03:29:42;;;;;;;54.40;33.83;;;11.10;99.90;;;;;;5014341;28;20057;-86
2023/02/22 03:32:15;;;;;;;53.28;34.60;;;11.10;99.90;;;;;;5021250;28;20042;-85
2023/02/22 03:34:51;;;;;;;53.42;33.05;;;11.20;99.90;;;;;;5011656;28;20042;-85
2023/02/22 03:37:22;;;;;;;57.13;34.97;;;11.20;99.90;;;;;;5023837;28;20376;-86
2023/02/22 03:39:49;;;;;;;57.15;34.35;;;11.20;99.90;;;;;;5028276;28;20038;-86
2023/02/22 03:42:21;;;;;;;55.35;33.28;;;11.10;99.90;;;;;;5002789;28;20041;-83
2023/02/22 03:44:47;;;;;;;;;;;11.20;99.90;;;;;;5030405;28;20041;-82
2023/02/22 03:47:15;;;;;;;52.42;32.78;;;11.30;99.90;;;;;;4993433;28;19914;-82
2023/02/22 03:49:54;;;;;;;51.35;33.45;;;11.30;99.90;;;;;;5001694;28;20045;-81
2023/02/22 03:52:22;;;;;;;52.20;32.40;;;11.30;99.90;;;;;;5008377;28;20503;-80
2023/02/22 03:54:52;;;;;;;53.55;32.92;;;11.20;99.90;;;;;;5027796;28;20044;-84
2023/02/22 03:57:26;;;;;;;51.30;32.67;;;11.20;99.90;;;;;;5033984;28;20054;-82
2023/02/22 03:59:52;;;;;;;53.78;33.63;;;11.20;99.90;;;;;;5024377;28;20042;-81
2023/02/22 04:02:19;;;;;;;54.88;32.50;;;11.30;99.90;;;;;;5038776;28;20035;-82
2023/02/22 04:04:45;;;;;;;54.83;32.22;;;11.30;99.90;;;;;;5008516;28;20054;-82
2023/02/22 04:07:11;;;;;;;54.72;31.50;;;11.20;99.90;;;;;;5008110;28;20026;-81
2023/02/22 04:09:38;;;;;;;57.00;35.63;;;11.30;99.90;;;;;;4989666;28;20065;-82
2023/02/22 04:12:04;;;;;;;56.20;33.75;;;11.30;99.90;;;;;;5019640;28;20057;-81
2023/02/22 04:14:30;;;;;;;50.28;33.92;;;11.30;99.90;;;;;;5007329;28;20022;-81
2023/02/22 04:16:57;;;;;;;52.25;33.78;;;11.40;99.90;;;;;;5000455;28;20118;-81
2023/02/22 04:19:23;;;;;;;51.92;33.28;;;11.40;99.90;;;;;;4995308;28;20049;-83
2023/02/22 04:21:49;;;;;;;50.45;32.28;;;11.40;99.90;;;;;;4994593;28;20057;-82
2023/02/22 04:24:15;;;;;;;49.88;31.38;;;11.40;99.90;;;;;;5009898;28;20388;-82
2023/02/22 04:26:41;;;;;;;49.17;32.15;;;11.40;99.90;;;;;;5025906;28;20037;-82
2023/02/22 04:29:07;;;;;;;46.17;29.50;;;11.40;99.90;;;;;;5027083;28;20026;-82
2023/02/22 04:31:33;;;;;;;46.85;30.08;;;11.40;99.90;;;;;;5001203;28;20050;-82
2023/02/22 04:34:00;;;;;;;44.50;30.65;;;11.40;99.90;;;;;;5012215;28;20030;-85
2023/02/22 04:36:26;;;;;;;48.70;29.80;;;11.40;99.90;;;;;;5007956;28;20026;-85
2023/02/22 04:38:53;;;;;;;47.08;29.70;;;11.40;99.90;;;;;;5043808;28;20040;-85
2023/02/22 04:41:19;;;;;;;45.80;29.00;;;11.40;99.90;;;;;;5012457;28;20038;-85
2023/02/22 04:43:45;;;;;;;43.03;27.63;;;11.40;99.90;;;;;;5043925;28;20038;-85
2023/02/22 04:46:11;;;;;;;42.53;27.60;;;11.40;99.90;;;;;;5021833;28;20045;-85
2023/02/22 04:48:37;;;;;;;46.10;26.95;;;11.40;99.90;;;;;;5047653;28;20037;-85
2023/02/22 04:51:04;;;;;;;45.03;26.35;;;11.40;99.90;;;;;;5011337;28;20041;-86
2023/02/22 04:53:30;;;;;;;43.85;25.55;;;11.40;99.90;;;;;;5026546;28;20042;-84
2023/02/22 04:55:56;;;;;;;40.45;24.70;;;11.40;99.90;;;;;;5016350;28;20033;-85
2023/02/22 04:58:22;;;;;;;40.17;26.65;;;11.40;99.90;;;;;;5016132;28;20030;-84
2023/02/22 05:00:48;;;;;;;38.28;26.05;;;11.40;99.90;;;;;;5030696;28;20045;-85
2023/02/22 05:03:14;;;;;;;41.92;26.50;;;11.50;99.90;;;;;;5047993;28;20037;-85
2023/02/22 05:05:40;;;;;;;40.25;26.08;;;11.50;99.90;;;;;;5014790;28;20045;-85
2023/02/22 05:08:06;;;;;;;44.88;26.33;;;11.50;99.90;;;;;;5025334;28;20037;-86
2023/02/22 05:10:33;;;;;;;38.72;24.42;;;11.40;99.90;;;;;;5048017;28;20029;-85
2023/02/22 05:12:59;;;;;;;40.70;25.60;;;11.40;99.90;;;;;;5030846;28;20382;-86
2023/02/22 05:15:25;;;;;;;41.97;26.13;;;11.40;99.90;;;;;;5027691;28;20030;-84
2023/02/22 05:17:51;;;;;;;39.80;24.92;;;11.40;99.90;;;;;;5031301;28;20030;-85
2023/02/22 05:20:36;;;;;;;38.60;25.25;;;11.40;99.90;;;;;;5030725;28;20053;-85
2023/02/22 05:23:02;;;;;;;115.43;30.40;;;11.50;99.90;;;;;;5014549;28;20041;-85
2023/02/22 05:25:28;;;;;;;42.97;26.85;;;11.40;99.90;;;;;;5030993;28;20029;-86
2023/02/22 05:27:56;;;;;;;53.13;26.58;;;11.40;99.90;;;;;;5017454;28;20030;-85
2023/02/22 05:30:27;;;;;;;41.60;25.70;;;11.50;99.90;;;;;;5027157;28;20046;-86
2023/02/22 05:32:53;;;;;;;39.80;25.90;;;11.40;99.90;;;;;;4995976;28;20042;-85
2023/02/22 05:35:20;;;;;;;40.42;25.27;;;11.50;99.90;;;;;;4996022;28;20041;-85
2023/02/22 05:37:46;;;;;;;40.83;25.45;;;11.50;99.90;;;;;;5029503;28;20030;-85
2023/02/22 05:40:13;;;;;;;89.75;27.40;;;11.50;99.90;;;;;;4996307;28;20034;-86
2023/02/22 05:42:40;;;;;;;40.97;25.25;;;11.50;99.90;;;;;;5044612;28;20030;-85
2023/02/22 05:45:08;;;;;;;43.42;24.73;;;11.50;99.90;;;;;;5031540;28;20048;-85
2023/02/22 05:47:34;;;;;;;40.35;25.75;;;11.50;99.90;;;;;;4997896;28;20049;-85
2023/02/22 05:50:00;;;;;;;43.33;25.80;;;11.60;99.90;;;;;;5014962;28;20022;-85
2023/02/22 05:52:26;;;;;;;369.83;46.85;;;11.50;99.90;;;;;;5012391;28;20101;-85
2023/02/22 05:54:52;;;;;;;41.05;25.48;;;11.50;99.90;;;;;;5012745;28;20364;-84
2023/02/22 05:57:18;;;;;;;40.22;26.65;;;11.50;99.90;;;;;;5030184;28;20030;-84
2023/02/22 05:59:45;;;;;;;40.65;25.20;;;11.50;99.90;;;;;;5030429;28;20033;-84
2023/02/22 06:02:11;;;;;;;49.92;27.50;;;11.40;99.90;;;;;;5014714;28;20030;-84
2023/02/22 06:04:37;;;;;;;37.53;25.10;;;11.50;99.90;;;;;;5014574;28;20026;-84
2023/02/22 06:07:03;;;;;;;35.92;24.42;;;11.50;99.90;;;;;;5013450;28;20029;-85
2023/02/22 06:09:29;;;;;;;37.95;25.52;;;11.40;99.90;;;;;;4993274;28;20049;-80
2023/02/22 06:11:55;;;;;;;40.00;25.98;;;11.40;99.90;;;;;;5012956;28;20034;-85
2023/02/22 06:14:23;;;;;;;41.22;24.80;;;11.40;99.90;;;;;;5014938;28;20026;-86
2023/02/22 06:16:53;;;;;;;43.25;26.30;;;11.50;99.90;;;;;;5014388;28;20044;-85
2023/02/22 06:19:19;;;;;;;91.38;30.60;;;11.50;99.90;;;;;;5027485;28;20403;-85
2023/02/22 06:21:53;;;;;;;87.78;26.40;;;11.50;99.90;;;;;;5005787;28;20060;-86
2023/02/22 06:24:19;;;;;;;39.10;26.00;;;11.50;99.90;;;;;;5023632;28;20026;-86
2023/02/22 06:26:45;;;;;;;40.97;25.27;;;11.50;99.90;;;;;;4980283;28;20407;-84
2023/02/22 06:29:11;;;;;;;100.13;28.25;;;11.50;99.90;;;;;;5012621;28;20037;-84
2023/02/22 06:31:37;;;;;;;239.35;35.53;;;11.50;99.90;;;;;;5020229;28;20434;-83
2023/02/22 06:34:03;;;;;;;37.78;27.00;;;11.50;99.90;;;;;;5013739;28;20042;-82
2023/02/22 06:36:30;;;;;;;40.53;25.25;;;11.50;99.90;;;;;;5001905;28;20026;-80
2023/02/22 06:38:56;;;;;;;110.40;28.55;;;11.50;99.90;;;;;;5013323;28;20573;-79
2023/02/22 06:41:23;;;;;;;322.10;40.65;;;11.50;99.90;;;;;;5012623;28;20037;-80
2023/02/22 06:43:49;;;;;;;264.63;37.78;;;11.50;99.90;;;;;;5029746;28;20045;-79
2023/02/22 06:46:15;;;;;;;41.63;25.48;;;11.50;99.90;;;;;;5057697;28;20388;-80
2023/02/22 06:48:41;;;;;;;39.03;25.65;;;11.50;99.90;;;;;;5023987;28;20041;-79
2023/02/22 06:51:08;;;;;;;35.50;23.60;;;11.50;99.90;;;;;;5017009;28;20046;-79
2023/02/22 06:53:34;;;;;;;40.92;25.77;;;11.50;99.90;;;;;;5034330;28;20045;-80
2023/02/22 06:56:01;;;;;;;40.95;26.02;;;11.60;99.90;;;;;;5009148;28;20037;-80
2023/02/22 06:58:27;;;;;;;52.55;25.92;;;11.50;99.90;;;;;;4992719;28;20046;-80
2023/02/22 07:00:53;;;;;;;42.17;27.30;;;11.60;99.90;;;;;;4994111;28;20041;-80
2023/02/22 07:03:19;;;;;;;42.08;25.42;;;11.60;99.90;;;;;;4992927;28;20045;-81
2023/02/22 07:05:46;;;;;;;155.73;30.58;;;11.60;99.90;;;;;;5009754;28;20030;-81
2023/02/22 07:08:12;;;;;;;57.75;26.73;;;11.50;99.90;;;;;;5013252;28;20486;-81
2023/02/22 07:10:38;;;;;;;104.78;29.55;;;11.60;99.90;;;;;;5012571;28;20387;-83
2023/02/22 07:13:05;;;;;;;44.22;25.92;;;11.50;99.90;;;;;;4975660;28;20050;-83
2023/02/22 07:15:32;;;;;;;43.88;27.30;;;11.50;99.90;;;;;;5011480;28;20476;-83
2023/02/22 07:17:58;;;;;;;42.30;26.88;;;11.60;99.90;;;;;;5025661;28;20030;-82
2023/02/22 07:20:26;;;;;;;40.33;26.55;;;11.60;99.90;;;;;;5026761;28;20387;-82
2023/02/22 07:22:52;;;;;;;41.13;26.10;;;11.60;99.90;;;;;;5035371;28;20499;-80
2023/02/22 07:25:19;;;;;;;41.83;27.58;;;11.60;99.90;;;;;;5034195;28;20034;-83
2023/02/22 07:27:45;;;;;;;45.88;27.20;;;11.60;99.90;;;;;;5029361;28;20479;-82
2023/02/22 07:30:17;;;;;;;39.00;25.60;;;11.60;99.90;;;;;;5023085;28;20084;-86
2023/02/22 07:32:43;;;;;;;41.13;26.25;;;11.50;99.90;;;;;;5011205;28;20038;-84
2023/02/22 07:35:17;;;;;;;46.38;26.85;;;11.60;99.90;;;;;;5012507;28;20048;-83
2023/02/22 07:37:43;;;;;;;40.88;27.10;;;11.60;99.90;;;;;;5012902;28;20046;-80
2023/02/22 07:40:10;;;;;;;43.13;27.77;;;11.60;99.90;;;;;;5031149;28;20479;-81
2023/02/22 07:42:54;;;;;;;38.25;26.60;;;11.60;99.90;;;;;;5024166;28;20410;-83
2023/02/22 07:45:21;;;;;;;252.68;35.92;;;11.60;99.90;;;;;;5004058;28;20037;-78
2023/02/22 07:47:47;;;;;;;44.90;28.67;;;11.60;99.90;;;;;;4991462;28;20037;-78
2023/02/22 07:50:15;;;;;;;45.10;28.13;;;11.60;99.90;;;;;;5008408;28;20037;-78
2023/02/22 07:52:47;;;;;;;47.90;28.20;;;11.60;99.90;;;;;;4990660;28;20407;-82
2023/02/22 07:55:17;;;;;;;41.03;27.27;;;11.50;99.90;;;;;;5036076;28;20017;-77
2023/02/22 07:57:47;;;;;;;46.10;27.23;;;11.50;99.90;;;;;;4995471;28;20045;-77
2023/02/22 08:00:15;;;;;;;51.60;29.95;;;11.50;99.90;;;;;;5021255;28;20033;-77
2023/02/22 08:02:42;;;;;;;47.78;29.77;;;11.50;99.90;;;;;;5024282;28;20460;-77
2023/02/22 08:05:09;;;;;;;125.40;32.90;;;11.50;99.90;;;;;;5015490;28;20041;-78
2023/02/22 08:07:38;;;;;;;44.17;28.25;;;11.60;99.90;;;;;;5000896;28;20029;-78
2023/02/22 08:10:06;;;;;;;44.40;27.02;;;11.50;99.90;;;;;;5025111;28;20487;-78
2023/02/22 08:12:33;;;;;;;46.13;28.45;;;11.50;99.90;;;;;;5018525;28;20049;-79
2023/02/22 08:14:59;;;;;;;42.30;28.38;;;11.50;99.90;;;;;;4995795;28;20030;-78
2023/02/22 08:17:25;;;;;;;45.20;27.83;;;11.60;99.90;;;;;;5033434;28;20034;-79
2023/02/22 08:19:51;;;;;;;48.03;27.98;;;11.60;99.90;;;;;;5007190;28;20041;-77
2023/02/22 08:22:17;;;;;;;37.85;25.25;;;11.60;99.90;;;;;;5034853;28;20423;-88
2023/02/22 08:24:43;;;;;;;42.60;30.17;;;11.60;99.90;;;;;;5017497;28;20025;-78
2023/02/22 08:27:09;;;;;;;44.90;27.77;;;11.70;99.90;;;;;;5011123;28;20033;-78
2023/02/22 08:29:36;;;;;;;46.90;27.85;;;11.70;99.90;;;;;;5019267;28;20022;-78
2023/02/22 08:32:02;;;;;;;44.97;29.48;;;11.80;99.90;;;;;;5013430;28;20046;-78
2023/02/22 08:34:28;;;;;;;39.53;27.75;;;11.80;99.90;;;;;;4999507;28;20030;-78
2023/02/22 08:36:54;;;;;;;275.90;38.17;;;11.80;99.90;;;;;;5032573;28;20465;-78
2023/02/22 08:39:20;;;;;;;42.20;26.92;;;11.80;99.90;;;;;;5034658;28;20463;-79
2023/02/22 08:41:47;;;;;;;47.20;28.65;;;11.80;99.90;;;;;;5050875;28;20030;-78
2023/02/22 08:44:13;;;;;;;42.67;28.10;;;11.90;99.90;;;;;;5033427;28;20041;-79
2023/02/22 08:46:39;;;;;;;40.72;27.58;;;11.90;99.90;;;;;;5040622;28;20029;-78
2023/02/22 08:49:08;;;;;;;45.80;32.13;;;11.90;99.90;;;;;;5005566;28;20021;-79
2023/02/22 08:51:35;;;;;;;55.92;37.25;;;11.90;99.90;;;;;;5018681;28;20038;-79
2023/02/22 08:54:02;;;;;;;59.83;37.15;;;11.80;99.90;;;;;;5050318;28;20033;-78
2023/02/22 08:56:29;;;;;;;54.75;33.75;;;11.90;99.90;;;;;;5017628;28;20053;-78
2023/02/22 08:58:56;;;;;;;58.53;34.83;;;11.90;99.90;;;;;;5050714;28;20029;-78
2023/02/22 09:01:26;;;;;;;55.55;34.08;;;11.90;99.90;;;;;;5050099;28;20034;-79
2023/02/22 09:03:52;;;;;;;53.85;33.67;;;11.90;99.90;;;;;;5045559;28;20044;-78
2023/02/22 09:06:19;;;;;;;57.63;34.28;;;11.90;99.90;;;;;;5017607;28;20040;-78
2023/02/22 09:08:45;;;;;;;65.90;38.80;;;11.80;99.90;;;;;;5016983;28;20498;-78
2023/02/22 09:11:11;;;;;;;94.93;48.92;;;11.80;99.90;;;;;;5019015;28;20025;-78
2023/02/22 09:13:37;;;;;;;77.07;43.42;;;11.80;99.90;;;;;;5050907;28;20467;-78
2023/02/22 09:16:03;;;;;;;64.10;36.90;;;11.70;99.90;;;;;;5018252;28;20030;-79
2023/02/22 09:18:29;;;;;;;58.55;33.85;;;11.70;99.90;;;;;;5017559;28;20380;-79
2023/02/22 09:20:55;;;;;;;58.33;33.75;;;11.70;99.90;;;;;;5049069;28;20053;-79
2023/02/22 09:23:21;;;;;;;60.60;31.70;;;11.60;99.90;;;;;;5049860;28;20391;-78
2023/02/22 09:25:47;;;;;;;55.28;33.95;;;11.60;99.90;;;;;;5050818;28;20033;-78
2023/02/22 09:28:14;;;;;;;103.15;35.00;;;11.50;99.90;;;;;;5017318;28;20041;-78
2023/02/22 09:30:40;;;;;;;56.30;33.42;;;11.40;99.90;;;;;;5033722;28;20034;-78
2023/02/22 09:33:10;;;;;;;96.25;32.30;;;11.50;99.90;;;;;;5021432;28;20054;-78
2023/02/22 09:35:40;;;;;;;51.63;30.60;;;11.50;99.90;;;;;;5029567;28;20027;-78
2023/02/22 09:38:07;;;;;;;45.78;28.25;;;11.60;99.90;;;;;;5000887;28;20038;-78
2023/02/22 09:40:39;;;;;;;45.88;27.85;;;11.60;99.90;;;;;;5015455;28;20030;-78
2023/02/22 09:43:27;;;;;;;43.25;29.05;;;11.60;99.90;;;;;;5029792;28;20033;-79
2023/02/22 09:46:02;;;;;;;45.83;28.67;;;11.60;99.90;;;;;;5023897;28;20026;-78
2023/02/22 09:48:30;;;;;;;45.45;28.00;;;11.60;99.90;;;;;;5012122;28;20046;-78
2023/02/22 09:50:57;;;;;;;45.55;27.25;;;11.50;99.90;;;;;;5010625;28;20030;-78
2023/02/22 09:53:34;;;;;;;45.13;27.45;;;11.60;99.90;;;;;;5010455;28;20038;-78
2023/02/22 09:56:04;;;;;;;43.45;26.67;;;11.50;99.90;;;;;;4993800;28;20039;-79
2023/02/22 09:58:35;;;;;;;50.28;28.00;;;11.50;99.90;;;;;;5010607;28;20027;-79
2023/02/22 10:01:37;;;;;;;47.38;27.70;;;11.50;99.90;;;;;;4995317;28;20042;-79
2023/02/22 10:04:33;;;;;;;41.40;25.38;;;11.50;99.90;;;;;;5025789;28;20376;-78
2023/02/22 10:07:17;;;;;;;42.33;27.13;;;11.50;99.90;;;;;;5009163;28;20345;-79
2023/02/22 10:09:43;;;;;;;48.42;29.52;;;11.60;99.90;;;;;;5026458;28;20034;-78
2023/02/22 10:12:38;;;;;;;44.25;29.45;;;11.70;99.90;;;;;;5034458;28;20038;-78
2023/02/22 10:15:30;;;;;;;64.63;37.40;;;11.70;99.90;;;;;;5013021;28;20045;-78
2023/02/22 10:18:00;;;;;;;58.65;32.53;;;11.70;99.90;;;;;;4996519;28;20038;-78
2023/02/22 10:20:41;;;;;;;52.85;32.08;;;11.80;99.90;;;;;;4995890;28;20042;-78
2023/02/22 10:23:13;;;;;;;;;;;11.90;99.90;;;;;;4996677;28;20045;-77
2023/02/22 10:25:39;;;;;;;44.28;27.13;;;11.90;99.90;;;;;;4996027;28;19910;-77
2023/02/22 10:28:17;;;;;;;42.35;26.88;;;11.90;99.90;;;;;;4980236;28;20030;-79
2023/02/22 10:30:48;;;;;;;44.08;24.73;;;11.90;99.90;;;;;;4962938;28;20030;-78
2023/02/22 10:33:20;;;;;;;45.78;27.15;;;11.80;99.90;;;;;;4989048;28;20050;-78
2023/02/22 10:35:47;;;;;;;42.83;24.63;;;11.90;99.90;;;;;;5012466;28;20037;-78
2023/02/22 10:38:17;;;;;;;35.05;22.40;;;11.90;99.90;;;;;;4995745;28;20041;-79
2023/02/22 10:40:45;;;;;;;40.10;24.13;;;12.00;99.90;;;;;;4995989;28;20034;-78
2023/02/22 10:43:11;;;;;;;33.80;21.42;;;12.20;99.90;;;;;;4980046;28;20577;-78
2023/02/22 10:45:37;;;;;;;38.60;24.17;;;12.30;99.90;;;;;;4985793;28;20040;-78
2023/02/22 10:48:11;;;;;;;36.63;24.45;;;12.40;99.90;;;;;;5016736;28;20479;-78
2023/02/22 10:50:39;;;;;;;34.08;21.65;;;12.40;99.90;;;;;;4996338;28;20074;-78
2023/02/22 10:53:07;;;;;;;27.38;19.50;;;12.50;99.90;;;;;;4959768;28;20043;-79
2023/02/22 10:55:33;;;;;;;35.47;22.52;;;12.50;99.90;;;;;;4986996;28;20026;-78
2023/02/22 10:58:06;;;;;;;38.00;22.83;;;12.50;99.90;;;;;;4993354;28;20479;-78
2023/02/22 11:00:36;;;;;;;27.85;18.30;;;12.50;99.90;;;;;;4976577;28;20038;-78
2023/02/22 11:03:16;;;;;;;25.58;17.58;;;12.40;99.90;;;;;;4979023;28;20475;-79
2023/02/22 11:05:42;;;;;;;26.83;17.55;;;12.30;99.90;;;;;;4993239;28;20066;-78
2023/02/22 11:08:21;;;;;;;26.50;18.67;;;12.20;99.90;;;;;;4977518;28;20022;-78
2023/02/22 11:10:51;;;;;;;28.83;18.88;;;12.30;99.90;;;;;;4986363;28;20034;-79
2023/02/22 11:13:30;;;;;;;28.83;19.35;;;12.30;99.90;;;;;;4993085;28;20480;-78
2023/02/22 11:16:02;;;;;;;31.00;19.10;;;12.30;99.90;;;;;;4992312;28;20038;-79
2023/02/22 11:18:30;;;;;;;31.40;19.35;;;12.20;99.90;;;;;;4993072;28;20030;-78
2023/02/22 11:21:00;;;;;;;32.28;19.50;;;12.10;99.90;;;;;;4987063;28;20481;-78
2023/02/22 11:23:27;;;;;;;36.65;21.30;;;12.10;99.90;;;;;;4972831;28;20053;-78
2023/02/22 11:26:00;;;;;;;36.65;24.30;;;12.20;99.90;;;;;;4984300;28;20041;-78
2023/02/22 11:28:31;;;;;;;31.20;23.08;;;12.20;99.90;;;;;;4992002;28;20023;-78
2023/02/22 11:31:12;;;;;;;24.65;18.00;;;12.20;99.90;;;;;;4975967;28;20034;-78
2023/02/22 11:33:38;;;;;;;29.17;19.88;;;12.20;99.90;;;;;;4992608;28;20045;-78
2023/02/22 11:36:07;;;;;;;32.53;19.55;;;12.00;99.90;;;;;;4992271;28;20034;-78
2023/02/22 11:38:37;;;;;;;28.25;18.17;;;12.00;99.90;;;;;;4975821;28;20372;-79
2023/02/22 11:41:16;;;;;;;42.22;25.15;;;11.90;99.90;;;;;;4991947;28;20495;-78
2023/02/22 11:43:44;;;;;;;31.77;21.83;;;12.00;99.90;;;;;;4991938;28;20026;-78
2023/02/22 11:46:17;;;;;;;32.47;21.67;;;12.10;99.90;;;;;;5002169;28;20040;-78
2023/02/22 11:49:16;;;;;;;33.25;21.23;;;12.10;99.90;;;;;;5011616;28;20038;-78
2023/02/22 11:52:03;;;;;;;35.30;23.70;;;12.20;99.90;;;;;;4937521;28;20047;-78
2023/02/22 11:54:38;;;;;;;34.30;23.10;;;12.20;99.90;;;;;;4940682;28;20047;-78
2023/02/22 11:57:25;;;;;;;36.22;22.63;;;12.20;99.90;;;;;;4955007;28;20183;-78
2023/02/22 12:00:14;;;;;;;32.97;22.85;;;12.30;99.90;;;;;;4955044;28;20050;-78
2023/02/22 12:02:58;;;;;;;29.35;21.52;;;12.30;99.90;;;;;;4941586;28;20039;-78
2023/02/22 12:05:58;;;;;;;31.23;21.48;;;12.30;99.90;;;;;;4970189;28;20475;-78
2023/02/22 12:08:40;;;;;;;31.40;21.35;;;12.30;99.90;;;;;;4971294;28;20508;-79
2023/02/22 12:11:33;;;;;;;30.63;19.00;;;12.30;99.90;;;;;;4950873;28;20050;-78
2023/02/22 12:14:11;;;;;;;28.77;19.42;;;12.40;99.90;;;;;;4954849;28;20054;-78
2023/02/22 12:16:56;;;;;;;30.27;18.50;;;12.30;99.90;;;;;;4970896;28;20123;-78
2023/02/22 12:19:32;;;;;;;26.98;18.88;;;12.40;99.90;;;;;;4971399;28;20027;-78
2023/02/22 12:22:14;;;;;;;26.40;19.75;;;12.40;99.90;;;;;;4935348;29;20043;-78
2023/02/22 12:24:43;;;;;;;28.92;18.80;;;12.30;99.90;;;;;;4941400;28;20046;-78
2023/02/22 12:27:26;;;;;;;28.33;17.95;;;12.20;99.90;;;;;;4955172;28;20038;-78
2023/02/22 12:29:57;;;;;;;25.40;18.48;;;12.20;99.90;;;;;;4972210;28;20027;-78
2023/02/22 12:32:36;;;;;;;28.95;17.67;;;12.20;99.90;;;;;;4990349;28;20037;-78
2023/02/22 12:35:07;;;;;;;29.00;19.95;;;12.30;99.90;;;;;;5024022;28;20042;-78
2023/02/22 12:37:44;;;;;;;29.60;21.50;;;12.30;99.90;;;;;;5024013;28;20030;-78
2023/02/22 12:40:15;;;;;;;28.92;19.95;;;12.40;99.90;;;;;;4974825;28;20042;-79
2023/02/22 12:43:26;;;;;;;28.98;19.65;;;12.40;99.90;;;;;;4971198;28;20031;-78
2023/02/22 12:46:02;;;;;;;27.85;20.00;;;12.40;99.90;;;;;;4997647;28;20407;-79